Time;durP1;ratioP1;P1;durP2;ratioP2;P2;SDS_P1;SDS_P2;PMS_P1;PMS_P2;Temp;Humidity;BMP_temperature;BMP_pressure;BME280_temperature;BME280_humidity;BME280_pressure;Samples;Min_cycle;Max_cycle;Signal;HPM_P1;HPM_P2
2023/10/23 00:01:54;;;;;;;14.73;7.87;;;;;;;;;;4996082;28;20213;-87
2023/10/23 00:04:20;;;;;;;12.23;6.93;;;;;;;;;;4981558;28;20369;-86
2023/10/23 00:06:46;;;;;;;11.93;6.90;;;;;;;;;;4983922;28;20214;-86
2023/10/23 00:09:13;;;;;;;16.70;8.20;;;;;;;;;;5007057;28;20238;-86
2023/10/23 00:11:40;;;;;;;15.40;8.90;;;;;;;;;;5007048;28;20651;-86
2023/10/23 00:14:06;;;;;;;15.10;8.00;;;;;;;;;;4986413;28;20555;-87
2023/10/23 00:16:32;;;;;;;11.20;7.60;;;;;;;;;;5001224;28;20191;-86
2023/10/23 00:18:58;;;;;;;15.40;8.17;;;;;;;;;;4984399;28;20269;-86
2023/10/23 00:21:24;;;;;;;17.60;10.17;;;;;;;;;;5001232;28;20194;-86
2023/10/23 00:23:50;;;;;;;13.47;7.70;;;;;;;;;;5001672;28;20198;-86
2023/10/23 00:26:17;;;;;;;12.93;7.47;;;;;;;;;;4994128;28;20187;-86
2023/10/23 00:28:50;;;;;;;10.60;5.97;;;;;;;;;;4989056;28;20246;-86
2023/10/23 00:31:16;;;;;;;10.67;5.73;;;;;;;;;;4984822;28;20201;-86
2023/10/23 00:33:42;;;;;;;11.27;6.00;;;;;;;;;;4993600;28;20682;-85
2023/10/23 00:36:08;;;;;;;10.50;6.33;;;;;;;;;;5012191;28;20605;-86
2023/10/23 00:38:34;;;;;;;14.10;7.73;;;;;;;;;;4994683;28;20215;-86
2023/10/23 00:41:00;;;;;;;9.90;6.53;;;;;;;;;;5009799;28;20190;-86
2023/10/23 00:43:27;;;;;;;10.50;6.03;;;;;;;;;;4991020;28;20591;-85
2023/10/23 00:45:57;;;;;;;13.43;6.57;;;;;;;;;;5007129;28;20191;-86
2023/10/23 00:48:24;;;;;;;12.70;6.87;;;;;;;;;;4992730;28;20214;-86
2023/10/23 00:50:51;;;;;;;14.27;7.33;;;;;;;;;;5007643;28;20183;-86
2023/10/23 00:53:18;;;;;;;12.93;7.13;;;;;;;;;;4990753;28;20210;-86
2023/10/23 00:55:44;;;;;;;13.57;7.37;;;;;;;;;;4992198;28;20191;-85
2023/10/23 00:58:11;;;;;;;11.30;6.20;;;;;;;;;;4991237;28;20265;-87
2023/10/23 01:00:37;;;;;;;10.57;5.97;;;;;;;;;;5007646;28;20183;-86
2023/10/23 01:03:04;;;;;;;12.43;7.27;;;;;;;;;;4975234;28;20190;-86
2023/10/23 01:05:30;;;;;;;9.97;6.13;;;;;;;;;;4974908;28;20187;-85
2023/10/23 01:07:56;;;;;;;8.63;5.37;;;;;;;;;;5001694;28;20293;-85
2023/10/23 01:10:23;;;;;;;7.57;4.77;;;;;;;;;;4992520;28;20222;-86
2023/10/23 01:12:49;;;;;;;7.27;4.43;;;;;;;;;;5010301;28;20188;-86
2023/10/23 01:15:15;;;;;;;8.27;5.00;;;;;;;;;;5009792;28;20213;-87
2023/10/23 01:17:41;;;;;;;14.77;7.63;;;;;;;;;;5005793;28;20179;-86
2023/10/23 01:20:09;;;;;;;15.83;9.07;;;;;;;;;;4992696;28;20830;-87
2023/10/23 01:22:35;;;;;;;16.43;9.30;;;;;;;;;;4975122;28;20222;-85
2023/10/23 01:25:01;;;;;;;14.53;8.67;;;;;;;;;;4985456;28;20254;-86
2023/10/23 01:27:27;;;;;;;12.47;7.27;;;;;;;;;;4990788;28;20183;-86
2023/10/23 01:29:53;;;;;;;11.13;6.27;;;;;;;;;;4990661;28;20195;-85
2023/10/23 01:32:20;;;;;;;8.87;5.37;;;;;;;;;;4998125;28;20253;-87
2023/10/23 01:34:46;;;;;;;10.90;5.90;;;;;;;;;;5005894;28;20401;-86
2023/10/23 01:37:12;;;;;;;11.93;7.23;;;;;;;;;;4986282;28;20577;-86
2023/10/23 01:39:38;;;;;;;14.17;8.50;;;;;;;;;;4991227;28;20552;-85
2023/10/23 01:42:04;;;;;;;10.90;6.87;;;;;;;;;;4988104;28;20184;-86
2023/10/23 01:44:30;;;;;;;10.20;6.10;;;;;;;;;;5012992;28;20187;-86
2023/10/23 01:46:57;;;;;;;12.33;6.50;;;;;;;;;;4989788;28;20191;-86
2023/10/23 01:49:23;;;;;;;13.23;6.27;;;;;;;;;;4978935;28;20226;-86
2023/10/23 01:51:49;;;;;;;10.17;5.60;;;;;;;;;;4979781;28;20184;-86
2023/10/23 01:54:15;;;;;;;11.50;5.93;;;;;;;;;;4986643;28;20211;-87
2023/10/23 01:56:42;;;;;;;7.93;4.97;;;;;;;;;;5001639;28;20182;-87
2023/10/23 01:59:08;;;;;;;10.03;4.97;;;;;;;;;;4991862;28;20210;-86
2023/10/23 02:01:38;;;;;;;9.57;4.77;;;;;;;;;;4988614;28;20231;-86
2023/10/23 02:04:05;;;;;;;5.87;4.63;;;;;;;;;;5026422;28;20195;-86
2023/10/23 02:06:31;;;;;;;8.63;4.50;;;;;;;;;;5009546;28;20253;-85
2023/10/23 02:08:57;;;;;;;7.67;4.33;;;;;;;;;;4998799;28;20215;-85
2023/10/23 02:11:23;;;;;;;5.93;4.10;;;;;;;;;;5014320;28;20671;-86
2023/10/23 02:13:49;;;;;;;6.40;4.10;;;;;;;;;;5014355;28;20254;-84
2023/10/23 02:16:16;;;;;;;6.83;4.03;;;;;;;;;;5013388;28;20190;-86
2023/10/23 02:18:43;;;;;;;11.07;4.07;;;;;;;;;;4993209;28;20203;-86
2023/10/23 02:21:10;;;;;;;7.87;4.20;;;;;;;;;;4996470;28;20256;-86
2023/10/23 02:23:36;;;;;;;6.37;3.90;;;;;;;;;;4980301;28;20210;-86
2023/10/23 02:26:02;;;;;;;4.63;3.40;;;;;;;;;;4992653;28;20218;-85
2023/10/23 02:28:29;;;;;;;5.87;3.87;;;;;;;;;;4996890;28;20241;-86
2023/10/23 02:30:55;;;;;;;6.00;3.50;;;;;;;;;;4991920;28;20195;-86
2023/10/23 02:33:21;;;;;;;5.90;4.13;;;;;;;;;;4995254;28;20210;-86
2023/10/23 02:35:47;;;;;;;6.07;3.37;;;;;;;;;;5013939;28;20185;-86
2023/10/23 02:38:14;;;;;;;7.60;4.27;;;;;;;;;;4983244;28;20282;-86
2023/10/23 02:40:40;;;;;;;7.53;3.70;;;;;;;;;;5014384;28;20323;-86
2023/10/23 02:43:07;;;;;;;6.07;3.80;;;;;;;;;;4990974;28;20774;-86
2023/10/23 02:45:33;;;;;;;6.13;3.50;;;;;;;;;;4992945;28;20183;-86
2023/10/23 02:48:00;;;;;;;5.83;3.40;;;;;;;;;;4983923;28;20675;-86
2023/10/23 02:50:26;;;;;;;6.30;3.63;;;;;;;;;;4981794;28;20206;-86
2023/10/23 02:52:52;;;;;;;5.23;3.50;;;;;;;;;;5006438;28;20564;-85
2023/10/23 02:55:18;;;;;;;6.10;3.30;;;;;;;;;;5008631;28;20232;-86
2023/10/23 02:57:45;;;;;;;7.73;3.80;;;;;;;;;;4980167;28;20206;-86
2023/10/23 03:00:12;;;;;;;4.93;3.70;;;;;;;;;;4989098;28;20642;-85
2023/10/23 03:02:39;;;;;;;5.83;3.57;;;;;;;;;;5008274;28;20186;-86
2023/10/23 03:05:07;;;;;;;4.40;3.60;;;;;;;;;;4993861;28;20682;-85
2023/10/23 03:07:33;;;;;;;4.27;3.27;;;;;;;;;;5005667;28;20198;-86
2023/10/23 03:09:59;;;;;;;3.97;3.00;;;;;;;;;;5003300;28;20196;-86
2023/10/23 03:12:25;;;;;;;7.50;3.40;;;;;;;;;;5002376;28;20187;-86
2023/10/23 03:14:51;;;;;;;5.83;3.33;;;;;;;;;;5015887;28;20717;-86
2023/10/23 03:17:17;;;;;;;9.33;5.00;;;;;;;;;;5013639;28;20484;-86
2023/10/23 03:19:43;;;;;;;7.83;4.40;;;;;;;;;;4985980;28;20285;-86
2023/10/23 03:22:09;;;;;;;7.37;4.43;;;;;;;;;;4994995;28;20265;-86
2023/10/23 03:24:36;;;;;;;6.07;4.30;;;;;;;;;;4990897;28;20654;-86
2023/10/23 03:27:02;;;;;;;7.60;4.50;;;;;;;;;;4992288;28;20274;-86
2023/10/23 03:29:28;;;;;;;6.60;4.27;;;;;;;;;;5002640;28;20215;-86
2023/10/23 03:31:55;;;;;;;5.30;3.50;;;;;;;;;;4991741;28;20587;-86
2023/10/23 03:34:24;;;;;;;6.60;3.87;;;;;;;;;;4987063;28;20620;-85
2023/10/23 03:36:51;;;;;;;5.40;3.63;;;;;;;;;;5008534;28;20202;-87
2023/10/23 03:39:17;;;;;;;4.87;3.73;;;;;;;;;;4996396;28;20211;-87
2023/10/23 03:41:43;;;;;;;6.03;3.47;;;;;;;;;;5000850;28;20695;-86
2023/10/23 03:44:09;;;;;;;5.73;3.67;;;;;;;;;;5005215;28;20191;-85
2023/10/23 03:46:35;;;;;;;7.13;3.50;;;;;;;;;;4996854;28;20205;-86
2023/10/23 03:49:02;;;;;;;8.27;3.63;;;;;;;;;;4994192;28;20546;-86
2023/10/23 03:51:28;;;;;;;4.37;3.30;;;;;;;;;;4993554;28;20188;-86
2023/10/23 03:53:54;;;;;;;5.63;3.30;;;;;;;;;;4991522;28;20783;-88
2023/10/23 03:56:20;;;;;;;5.67;3.60;;;;;;;;;;4993937;28;20187;-87
2023/10/23 03:58:46;;;;;;;6.90;3.90;;;;;;;;;;4994169;28;20333;-86
2023/10/23 04:01:13;;;;;;;6.03;3.60;;;;;;;;;;5007323;28;20186;-86
2023/10/23 04:03:39;;;;;;;5.17;3.77;;;;;;;;;;5000413;28;20281;-87
2023/10/23 04:06:05;;;;;;;5.40;3.53;;;;;;;;;;4991126;28;20186;-87
2023/10/23 04:08:32;;;;;;;5.07;3.47;;;;;;;;;;5007599;28;20220;-86
2023/10/23 04:10:59;;;;;;;5.00;3.60;;;;;;;;;;4998211;28;20203;-87
2023/10/23 04:13:25;;;;;;;5.07;3.93;;;;;;;;;;5026561;28;20226;-86
2023/10/23 04:15:56;;;;;;;6.27;3.70;;;;;;;;;;5011718;28;20215;-86
2023/10/23 04:18:22;;;;;;;5.67;3.67;;;;;;;;;;5008843;28;20223;-86
2023/10/23 04:20:48;;;;;;;7.27;3.57;;;;;;;;;;4992157;28;20192;-87
2023/10/23 04:23:16;;;;;;;5.07;3.30;;;;;;;;;;5006816;28;20187;-86
2023/10/23 04:25:42;;;;;;;6.57;3.60;;;;;;;;;;5007061;28;20188;-87
2023/10/23 04:28:08;;;;;;;6.00;4.20;;;;;;;;;;4988192;28;20279;-86
2023/10/23 04:30:34;;;;;;;6.20;4.07;;;;;;;;;;4998737;28;20183;-86
2023/10/23 04:33:01;;;;;;;7.20;3.93;;;;;;;;;;5012218;28;20216;-85
2023/10/23 04:35:27;;;;;;;5.17;3.57;;;;;;;;;;4989992;28;20195;-85
2023/10/23 04:37:53;;;;;;;5.90;3.40;;;;;;;;;;4980735;28;20183;-87
2023/10/23 04:40:19;;;;;;;8.63;3.77;;;;;;;;;;4986568;28;20234;-86
2023/10/23 04:42:45;;;;;;;7.47;3.50;;;;;;;;;;4992722;28;20713;-86
2023/10/23 04:45:11;;;;;;;7.97;3.67;;;;;;;;;;4978945;28;20233;-86
2023/10/23 04:47:37;;;;;;;6.60;3.60;;;;;;;;;;5009459;28;20196;-86
2023/10/23 04:50:04;;;;;;;6.83;3.83;;;;;;;;;;4983253;28;20222;-87
2023/10/23 04:52:30;;;;;;;6.37;3.87;;;;;;;;;;4978134;28;20218;-86
2023/10/23 04:54:57;;;;;;;5.63;3.37;;;;;;;;;;4987928;28;20211;-86
2023/10/23 04:57:23;;;;;;;7.40;3.33;;;;;;;;;;5029674;28;20191;-85
2023/10/23 04:59:49;;;;;;;6.63;3.17;;;;;;;;;;5014031;28;20275;-86
2023/10/23 05:02:15;;;;;;;5.73;3.00;;;;;;;;;;5007345;28;20187;-86
2023/10/23 05:04:41;;;;;;;6.40;3.07;;;;;;;;;;5011893;28;20528;-86
2023/10/23 05:07:07;;;;;;;5.30;3.00;;;;;;;;;;5001762;28;20278;-86
2023/10/23 05:09:33;;;;;;;4.93;3.22;;;;;;;;;;4978934;28;20433;-79
2023/10/23 05:12:00;;;;;;;6.07;2.97;;;;;;;;;;4999656;28;20183;-79
2023/10/23 05:14:26;;;;;;;6.87;2.90;;;;;;;;;;5005819;28;20288;-80
2023/10/23 05:16:52;;;;;;;6.57;2.90;;;;;;;;;;5011960;28;20191;-80
2023/10/23 05:19:19;;;;;;;4.80;2.60;;;;;;;;;;4998631;28;20238;-78
2023/10/23 05:21:45;;;;;;;6.30;3.50;;;;;;;;;;4998551;28;20587;-80
2023/10/23 05:24:11;;;;;;;8.03;3.43;;;;;;;;;;5008345;28;20282;-81
2023/10/23 05:26:37;;;;;;;7.03;3.60;;;;;;;;;;5001864;28;20188;-81
2023/10/23 05:29:03;;;;;;;5.93;2.90;;;;;;;;;;5008227;28;20234;-80
2023/10/23 05:31:29;;;;;;;4.10;3.20;;;;;;;;;;5006034;28;20187;-80
2023/10/23 05:33:55;;;;;;;6.10;3.40;;;;;;;;;;4985226;28;20219;-80
2023/10/23 05:36:21;;;;;;;8.27;4.70;;;;;;;;;;4999479;28;20191;-79
2023/10/23 05:38:48;;;;;;;8.43;4.00;;;;;;;;;;4984945;28;20214;-79
2023/10/23 05:41:14;;;;;;;6.77;3.77;;;;;;;;;;4994975;28;20203;-80
2023/10/23 05:43:40;;;;;;;6.37;3.50;;;;;;;;;;5006197;28;20203;-79
2023/10/23 05:46:06;;;;;;;5.83;3.07;;;;;;;;;;4981044;28;20187;-78
2023/10/23 05:48:33;;;;;;;5.07;3.40;;;;;;;;;;4992260;28;20501;-82
2023/10/23 05:51:00;;;;;;;4.50;3.13;;;;;;;;;;5010781;28;20191;-79
2023/10/23 05:53:26;;;;;;;5.07;3.20;;;;;;;;;;5011924;28;20222;-78
2023/10/23 05:55:53;;;;;;;7.10;3.67;;;;;;;;;;5001984;28;20180;-79
2023/10/23 05:58:19;;;;;;;6.87;3.47;;;;;;;;;;4989747;28;20274;-79
2023/10/23 06:00:46;;;;;;;4.57;3.60;;;;;;;;;;5012727;28;20194;-78
2023/10/23 06:03:12;;;;;;;6.37;3.67;;;;;;;;;;5011146;28;20667;-77
2023/10/23 06:05:42;;;;;;;5.67;3.17;;;;;;;;;;5016811;28;20192;-76
2023/10/23 06:08:08;;;;;;;4.57;3.60;;;;;;;;;;4998222;28;20183;-78
2023/10/23 06:10:42;;;;;;;8.77;3.77;;;;;;;;;;5010075;28;20333;-78
2023/10/23 06:13:08;;;;;;;7.80;3.90;;;;;;;;;;4990785;28;20217;-78
2023/10/23 06:15:34;;;;;;;7.53;3.97;;;;;;;;;;4998945;28;20259;-79
2023/10/23 06:18:02;;;;;;;5.83;3.57;;;;;;;;;;5000924;28;20206;-79
2023/10/23 06:20:29;;;;;;;5.30;3.60;;;;;;;;;;5006982;28;20647;-78
2023/10/23 06:22:55;;;;;;;5.47;3.80;;;;;;;;;;5019607;28;20175;-79
2023/10/23 06:25:21;;;;;;;8.23;4.13;;;;;;;;;;5004428;28;20215;-79
2023/10/23 06:27:47;;;;;;;7.30;4.20;;;;;;;;;;5007398;28;20194;-79
2023/10/23 06:30:14;;;;;;;8.37;4.30;;;;;;;;;;5007542;28;20206;-79
2023/10/23 06:32:40;;;;;;;7.30;4.40;;;;;;;;;;5006248;28;20203;-79
2023/10/23 06:35:06;;;;;;;7.67;3.90;;;;;;;;;;5006726;28;20215;-77
2023/10/23 06:37:32;;;;;;;6.63;4.13;;;;;;;;;;5023993;28;20183;-79
2023/10/23 06:39:59;;;;;;;6.43;4.70;;;;;;;;;;5008914;28;20210;-76
2023/10/23 06:42:26;;;;;;;7.00;4.70;;;;;;;;;;5007445;28;20188;-76
2023/10/23 06:44:52;;;;;;;8.10;5.00;;;;;;;;;;5010924;28;20179;-79
2023/10/23 06:47:18;;;;;;;6.73;5.33;;;;;;;;;;5009117;28;20199;-77
2023/10/23 06:49:45;;;;;;;9.57;5.47;;;;;;;;;;4993813;28;20226;-77
2023/10/23 06:52:11;;;;;;;7.03;4.90;;;;;;;;;;5010347;28;20214;-79
2023/10/23 06:54:37;;;;;;;7.23;4.80;;;;;;;;;;5013099;28;20250;-79
2023/10/23 06:57:06;;;;;;;9.03;4.83;;;;;;;;;;5011167;28;20226;-77
2023/10/23 06:59:33;;;;;;;8.90;5.00;;;;;;;;;;5010779;28;20211;-80
2023/10/23 07:02:03;;;;;;;7.03;5.20;;;;;;;;;;5009152;28;20647;-77
2023/10/23 07:04:29;;;;;;;8.27;5.53;;;;;;;;;;4996710;28;20214;-77
2023/10/23 07:06:56;;;;;;;8.80;5.33;;;;;;;;;;5020028;28;20190;-78
2023/10/23 07:09:22;;;;;;;9.20;6.07;;;;;;;;;;5018521;28;20211;-80
2023/10/23 07:11:49;;;;;;;11.30;6.80;;;;;;;;;;5017751;28;20186;-80
2023/10/23 07:14:15;;;;;;;9.40;6.70;;;;;;;;;;5015597;28;20317;-79
2023/10/23 07:16:42;;;;;;;10.87;7.33;;;;;;;;;;5009259;28;20175;-79
2023/10/23 07:19:08;;;;;;;12.40;7.03;;;;;;;;;;5013150;28;20229;-80
2023/10/23 07:21:35;;;;;;;10.17;6.30;;;;;;;;;;5012211;28;20814;-80
2023/10/23 07:24:02;;;;;;;6.97;5.30;;;;;;;;;;5028725;28;20282;-78
2023/10/23 07:26:29;;;;;;;7.03;5.30;;;;;;;;;;5012814;28;20187;-79
2023/10/23 07:28:55;;;;;;;6.83;4.50;;;;;;;;;;5013729;28;20304;-79
2023/10/23 07:31:22;;;;;;;8.00;4.40;;;;;;;;;;5014938;28;20218;-77
2023/10/23 07:33:50;;;;;;;8.73;4.97;;;;;;;;;;5013052;28;20218;-79
2023/10/23 07:36:17;;;;;;;8.00;4.43;;;;;;;;;;4988038;28;20215;-80
2023/10/23 07:38:44;;;;;;;8.37;5.10;;;;;;;;;;5015193;28;20282;-79
2023/10/23 07:41:11;;;;;;;5.37;3.90;;;;;;;;;;5016193;28;20186;-78
2023/10/23 07:43:37;;;;;;;7.13;4.30;;;;;;;;;;5014869;28;20191;-77
2023/10/23 07:46:07;;;;;;;6.50;3.90;;;;;;;;;;5012547;28;20592;-80
2023/10/23 07:48:33;;;;;;;4.70;3.93;;;;;;;;;;5011371;28;20274;-81
2023/10/23 07:51:00;;;;;;;5.70;3.93;;;;;;;;;;4993285;28;20186;-81
2023/10/23 07:53:27;;;;;;;7.67;3.97;;;;;;;;;;5010901;28;20218;-78
2023/10/23 07:55:53;;;;;;;7.93;3.90;;;;;;;;;;5013343;28;20191;-80
2023/10/23 07:58:20;;;;;;;7.57;4.17;;;;;;;;;;5011999;28;20243;-80
2023/10/23 08:00:46;;;;;;;8.20;4.57;;;;;;;;;;5013723;28;20179;-81
2023/10/23 08:03:13;;;;;;;7.10;4.50;;;;;;;;;;5012778;28;20218;-81
2023/10/23 08:05:39;;;;;;;10.50;4.67;;;;;;;;;;5013045;28;20214;-81
2023/10/23 08:08:05;;;;;;;7.70;4.40;;;;;;;;;;5012279;28;20655;-81
2023/10/23 08:10:31;;;;;;;7.23;4.57;;;;;;;;;;4991724;28;20667;-81
2023/10/23 08:12:58;;;;;;;9.63;4.50;;;;;;;;;;5012076;28;20261;-81
2023/10/23 08:15:24;;;;;;;7.17;4.53;;;;;;;;;;5013071;28;20672;-81
2023/10/23 08:17:50;;;;;;;10.23;4.53;;;;;;;;;;5010852;28;20188;-81
2023/10/23 08:20:17;;;;;;;9.40;4.57;;;;;;;;;;5009064;28;20286;-81
2023/10/23 08:22:43;;;;;;;9.67;4.53;;;;;;;;;;5011032;28;20179;-80
2023/10/23 08:25:09;;;;;;;11.60;6.33;;;;;;;;;;5009505;28;20266;-81
2023/10/23 08:27:35;;;;;;;11.07;6.00;;;;;;;;;;4993299;28;20191;-81
2023/10/23 08:30:02;;;;;;;12.70;6.47;;;;;;;;;;4991028;28;20215;-81
2023/10/23 08:32:29;;;;;;;11.60;6.17;;;;;;;;;;5003914;28;20187;-81
2023/10/23 08:34:55;;;;;;;9.33;5.23;;;;;;;;;;5011759;28;20226;-81
2023/10/23 08:37:21;;;;;;;6.83;4.80;;;;;;;;;;5029394;28;20201;-81
2023/10/23 08:39:48;;;;;;;9.60;4.97;;;;;;;;;;5027751;28;20199;-81
2023/10/23 08:42:14;;;;;;;9.27;5.00;;;;;;;;;;5013250;28;20229;-81
2023/10/23 08:44:41;;;;;;;9.27;4.90;;;;;;;;;;5011654;28;20183;-81
2023/10/23 08:47:07;;;;;;;10.07;4.50;;;;;;;;;;4994415;28;20183;-80
2023/10/23 08:49:34;;;;;;;9.53;4.60;;;;;;;;;;5011433;28;20215;-79
2023/10/23 08:52:01;;;;;;;9.43;4.67;;;;;;;;;;4993389;28;20190;-81
2023/10/23 08:54:28;;;;;;;8.17;4.30;;;;;;;;;;5009155;28;20298;-77
2023/10/23 08:56:58;;;;;;;10.60;4.60;;;;;;;;;;5008757;28;20175;-80
2023/10/23 08:59:25;;;;;;;10.53;4.70;;;;;;;;;;5009749;28;20689;-81
2023/10/23 09:01:51;;;;;;;10.67;4.40;;;;;;;;;;5011215;28;20188;-81
2023/10/23 09:04:17;;;;;;;10.57;5.10;;;;;;;;;;5011830;28;20187;-79
2023/10/23 09:06:43;;;;;;;6.87;4.00;;;;;;;;;;5009816;28;20255;-80
2023/10/23 09:09:09;;;;;;;11.23;4.53;;;;;;;;;;4992891;28;20407;-81
2023/10/23 09:11:46;;;;;;;8.07;4.63;;;;;;;;;;5010014;28;20268;-80
2023/10/23 09:14:39;;;;;;;8.47;4.70;;;;;;;;;;5008958;28;20229;-81
2023/10/23 09:17:05;;;;;;;11.07;4.97;;;;;;;;;;5008134;28;20205;-80
2023/10/23 09:19:36;;;;;;;8.60;4.37;;;;;;;;;;5007248;28;20235;-79
2023/10/23 09:22:10;;;;;;;12.07;4.70;;;;;;;;;;4993219;28;20294;-80
2023/10/23 09:24:36;;;;;;;9.37;4.57;;;;;;;;;;4991134;28;20187;-81
2023/10/23 09:27:03;;;;;;;7.93;4.30;;;;;;;;;;5008350;28;20242;-81
2023/10/23 09:29:29;;;;;;;8.07;4.60;;;;;;;;;;5011059;28;20218;-81
2023/10/23 09:31:57;;;;;;;9.27;5.33;;;;;;;;;;5008996;28;20186;-81
2023/10/23 09:34:24;;;;;;;7.83;5.30;;;;;;;;;;5009080;28;20214;-80
2023/10/23 09:36:51;;;;;;;9.20;5.07;;;;;;;;;;5014042;28;20202;-81
2023/10/23 09:39:18;;;;;;;11.90;5.60;;;;;;;;;;5017929;28;20198;-81
2023/10/23 09:41:47;;;;;;;8.67;5.83;;;;;;;;;;5020005;28;20269;-80
2023/10/23 09:44:14;;;;;;;9.87;5.83;;;;;;;;;;5009230;28;20248;-81
2023/10/23 09:46:42;;;;;;;10.03;6.10;;;;;;;;;;5007844;28;20903;-81
2023/10/23 09:49:09;;;;;;;9.30;6.30;;;;;;;;;;5008744;28;20786;-81
2023/10/23 09:51:42;;;;;;;13.87;6.97;;;;;;;;;;5010887;28;20219;-81
2023/10/23 09:54:19;;;;;;;9.90;5.83;;;;;;;;;;4995340;28;20283;-81
2023/10/23 09:56:52;;;;;;;17.20;6.60;;;;;;;;;;5008562;28;20301;-81
2023/10/23 09:59:19;;;;;;;10.40;6.13;;;;;;;;;;5010909;28;20234;-80
2023/10/23 10:01:50;;;;;;;8.83;6.37;;;;;;;;;;5010724;28;20210;-80
2023/10/23 10:04:26;;;;;;;8.13;6.10;;;;;;;;;;5012387;28;20210;-80
2023/10/23 10:06:59;;;;;;;9.83;6.33;;;;;;;;;;5011314;28;20191;-82
2023/10/23 10:09:26;;;;;;;9.23;5.90;;;;;;;;;;5012112;28;20685;-82
2023/10/23 10:11:54;;;;;;;8.93;6.20;;;;;;;;;;5006713;28;20206;-82
2023/10/23 10:14:21;;;;;;;11.60;6.80;;;;;;;;;;5011198;28;20219;-77
2023/10/23 10:16:48;;;;;;;8.93;6.40;;;;;;;;;;5006261;28;20202;-82
2023/10/23 10:19:15;;;;;;;13.50;6.17;;;;;;;;;;5014149;28;20294;-81
2023/10/23 10:21:52;;;;;;;8.27;5.30;;;;;;;;;;5011137;28;20187;-82
2023/10/23 10:24:20;;;;;;;9.67;6.20;;;;;;;;;;5009750;28;20190;-81
2023/10/23 10:26:48;;;;;;;9.63;6.53;;;;;;;;;;5007312;28;20256;-82
2023/10/23 10:29:14;;;;;;;8.63;5.83;;;;;;;;;;5015228;28;20735;-81
2023/10/23 10:32:04;;;;;;;7.73;5.97;;;;;;;;;;5008664;28;20191;-81
2023/10/23 10:34:31;;;;;;;9.77;6.30;;;;;;;;;;5000479;28;21240;-81
2023/10/23 10:36:58;;;;;;;10.53;6.70;;;;;;;;;;5034163;28;20218;-81
2023/10/23 10:39:44;;;;;;;11.10;7.50;;;;;;;;;;5009140;28;20203;-82
2023/10/23 10:42:15;;;;;;;8.90;6.70;;;;;;;;;;5011573;28;20179;-82
2023/10/23 10:45:00;;;;;;;10.57;6.83;;;;;;;;;;5005060;28;20199;-82
2023/10/23 10:47:53;;;;;;;9.77;5.83;;;;;;;;;;4993665;28;20713;-81
2023/10/23 10:50:36;;;;;;;10.80;6.70;;;;;;;;;;5009368;28;20222;-80
2023/10/23 10:53:07;;;;;;;9.37;6.43;;;;;;;;;;5011388;28;20800;-82
2023/10/23 10:55:34;;;;;;;11.53;7.20;;;;;;;;;;5006484;28;20650;-82
2023/10/23 10:58:00;;;;;;;11.53;7.23;;;;;;;;;;5005684;28;20179;-82
2023/10/23 11:00:35;;;;;;;9.20;7.50;;;;;;;;;;5007557;28;20566;-80
2023/10/23 11:03:01;;;;;;;9.57;7.07;;;;;;;;;;4995438;28;20214;-82
2023/10/23 11:05:28;;;;;;;11.40;7.70;;;;;;;;;;5013018;28;20187;-82
2023/10/23 11:07:54;;;;;;;10.57;7.23;;;;;;;;;;5010453;28;20248;-80
2023/10/23 11:10:21;;;;;;;12.23;7.10;;;;;;;;;;4994823;28;20200;-82
2023/10/23 11:12:47;;;;;;;10.07;7.03;;;;;;;;;;5008930;28;20808;-82
2023/10/23 11:15:15;;;;;;;11.17;6.90;;;;;;;;;;5011374;28;20243;-81
2023/10/23 11:17:41;;;;;;;9.83;7.60;;;;;;;;;;5013238;28;20178;-82
2023/10/23 11:20:08;;;;;;;9.00;6.87;;;;;;;;;;5012631;28;20203;-82
2023/10/23 11:22:34;;;;;;;13.13;7.20;;;;;;;;;;5015644;28;20198;-80
2023/10/23 11:25:00;;;;;;;10.97;7.13;;;;;;;;;;5013714;28;20183;-81
2023/10/23 11:27:26;;;;;;;11.80;7.10;;;;;;;;;;5014878;28;20245;-81
2023/10/23 11:29:53;;;;;;;10.43;6.80;;;;;;;;;;5003606;28;20266;-82
2023/10/23 11:32:19;;;;;;;8.87;6.97;;;;;;;;;;4998177;28;20218;-81
2023/10/23 11:34:47;;;;;;;9.10;6.50;;;;;;;;;;5014292;28;20199;-81
2023/10/23 11:37:13;;;;;;;11.20;6.97;;;;;;;;;;5013171;28;20175;-81
2023/10/23 11:39:43;;;;;;;9.47;7.40;;;;;;;;;;5008966;28;20207;-81
2023/10/23 11:42:11;;;;;;;10.33;7.47;;;;;;;;;;5010687;28;20735;-81
2023/10/23 11:44:37;;;;;;;12.07;7.67;;;;;;;;;;5016716;28;20568;-82
2023/10/23 11:47:07;;;;;;;11.83;7.17;;;;;;;;;;5015331;28;20213;-82
2023/10/23 11:49:33;;;;;;;9.83;7.77;;;;;;;;;;5009715;28;20218;-81
2023/10/23 11:52:00;;;;;;;9.77;7.40;;;17.10;99.90;;;;;;4993472;28;20207;-81
2023/10/23 11:54:28;;;;;;;12.43;8.10;;;15.00;99.90;;;;;;5009453;28;20773;-81
2023/10/23 11:56:58;;;;;;;11.27;7.77;;;14.90;99.90;;;;;;5010658;28;20199;-81
2023/10/23 11:59:25;;;;;;;11.27;7.53;;;14.80;99.90;;;;;;5009611;28;20209;-82
2023/10/23 12:01:52;;;;;;;11.53;7.63;;;14.90;99.90;;;;;;5012449;28;20199;-81
2023/10/23 12:04:18;;;;;;;10.20;7.30;;;14.90;99.90;;;;;;5019700;28;20192;-81
2023/10/23 12:06:44;;;;;;;10.90;8.67;;;14.80;99.90;;;;;;5014990;28;20193;-81
2023/10/23 12:09:10;;;;;;;12.13;8.13;;;14.80;99.90;;;;;;5014601;28;20206;-82
2023/10/23 12:11:36;;;;;;;8.73;7.47;;;14.90;99.90;;;;;;5015081;28;20196;-81
2023/10/23 12:14:03;;;;;;;13.57;7.53;;;14.80;99.90;;;;;;5012296;28;20211;-82
2023/10/23 12:16:33;;;;;;;11.27;8.23;;;14.80;99.90;;;;;;5030642;28;20202;-82
2023/10/23 12:18:59;;;;;;;13.77;8.00;;;14.80;99.90;;;;;;5012535;28;20212;-80
2023/10/23 12:21:26;;;;;;;12.70;9.53;;;14.80;99.90;;;;;;5012482;28;20575;-82
2023/10/23 12:23:52;;;;;;;12.40;9.33;;;14.80;99.90;;;;;;5014939;28;20251;-82
2023/10/23 12:26:18;;;;;;;16.40;10.10;;;14.80;99.90;;;;;;5011656;28;20191;-82
2023/10/23 12:28:44;;;;;;;16.20;9.73;;;14.80;99.90;;;;;;5015124;28;20202;-79
2023/10/23 12:31:10;;;;;;;20.50;9.23;;;14.90;99.90;;;;;;4996873;28;20191;-80
2023/10/23 12:33:36;;;;;;;14.30;9.47;;;14.90;99.90;;;;;;5012001;28;21298;-80
2023/10/23 12:36:05;;;;;;;15.37;8.80;;;14.90;99.90;;;;;;5005466;28;20184;-78
2023/10/23 12:38:33;;;;;;;15.83;8.73;;;14.90;99.90;;;;;;5011866;28;20199;-79
2023/10/23 12:40:59;;;;;;;16.60;8.83;;;15.00;99.90;;;;;;4995126;28;20179;-80
2023/10/23 12:43:25;;;;;;;14.07;8.87;;;15.00;99.90;;;;;;5010988;28;20321;-80
2023/10/23 12:45:50;;;;;;;13.27;8.90;;;15.10;99.90;;;;;;5013141;28;20203;-80
2023/10/23 12:48:16;;;;;;;14.27;8.47;;;15.10;99.90;;;;;;5013089;28;20186;-80
2023/10/23 12:50:43;;;;;;;11.83;8.57;;;15.20;99.90;;;;;;5025654;28;20195;-81
2023/10/23 12:53:09;;;;;;;14.87;7.93;;;15.30;99.90;;;;;;5010967;28;20268;-82
2023/10/23 12:55:35;;;;;;;13.23;9.20;;;15.40;99.90;;;;;;4993870;28;20261;-81
2023/10/23 12:58:02;;;;;;;13.20;8.80;;;15.40;99.90;;;;;;4983214;28;20711;-79
2023/10/23 13:00:29;;;;;;;11.17;8.40;;;15.50;99.90;;;;;;5001589;28;20187;-78
2023/10/23 13:02:55;;;;;;;15.03;8.00;;;15.60;99.90;;;;;;5021584;28;20259;-78
2023/10/23 13:05:21;;;;;;;12.57;8.80;;;15.80;99.90;;;;;;5014465;28;20211;-78
2023/10/23 13:07:46;;;;;;;15.13;8.77;;;15.90;99.90;;;;;;5014061;28;20183;-79
2023/10/23 13:10:12;;;;;;;14.87;9.03;;;15.80;99.90;;;;;;5013967;28;20226;-79
2023/10/23 13:12:38;;;;;;;16.90;9.87;;;15.70;99.90;;;;;;5010966;28;20190;-78
2023/10/23 13:15:04;;;;;;;15.97;10.40;;;15.60;99.90;;;;;;5009037;28;20211;-80
2023/10/23 13:17:30;;;;;;;15.77;9.63;;;15.40;99.90;;;;;;4994603;28;20273;-79
2023/10/23 13:19:56;;;;;;;12.57;9.20;;;15.30;99.90;;;;;;5014684;28;20246;-80
2023/10/23 13:22:22;;;;;;;13.47;9.17;;;15.30;99.90;;;;;;5024137;28;20225;-81
2023/10/23 13:24:48;;;;;;;24.47;16.17;;;15.10;99.90;;;;;;5020960;28;20222;-79
2023/10/23 13:27:15;;;;;;;19.17;13.77;;;15.20;99.90;;;;;;5023662;28;20183;-80
2023/10/23 13:29:44;;;;;;;16.40;11.70;;;15.20;99.90;;;;;;5017583;28;20354;-80
2023/10/23 13:32:14;;;;;;;11.77;9.70;;;15.10;99.90;;;;;;4995515;28;20191;-80
2023/10/23 13:34:41;;;;;;;11.83;8.30;;;15.10;99.90;;;;;;5013908;28;20269;-81
2023/10/23 13:37:07;;;;;;;12.43;8.47;;;15.10;99.90;;;;;;5013229;28;20215;-80
2023/10/23 13:39:32;;;;;;;10.20;7.30;;;15.10;99.90;;;;;;5012610;28;20203;-80
2023/10/23 13:41:58;;;;;;;9.07;6.93;;;15.10;99.90;;;;;;5011713;28;20206;-79
2023/10/23 13:44:24;;;;;;;8.70;6.63;;;15.20;99.90;;;;;;5013309;28;20682;-81
2023/10/23 13:46:50;;;;;;;10.10;7.00;;;15.30;99.90;;;;;;4995569;28;20191;-80
2023/10/23 13:49:16;;;;;;;10.13;7.47;;;15.40;99.90;;;;;;5010656;28;20226;-80
2023/10/23 13:51:42;;;;;;;13.07;7.83;;;15.40;99.90;;;;;;5013358;28;20750;-79
2023/10/23 13:54:07;;;;;;;11.63;8.50;;;15.50;99.90;;;;;;5014672;28;20203;-81
2023/10/23 13:56:33;;;;;;;12.47;8.23;;;15.50;99.90;;;;;;5014933;28;20182;-78
2023/10/23 13:58:59;;;;;;;10.63;7.60;;;15.50;99.90;;;;;;5017778;28;20191;-78
2023/10/23 14:01:24;;;;;;;13.17;8.67;;;15.60;99.90;;;;;;5020645;28;20216;-81
2023/10/23 14:03:52;;;;;;;14.40;11.07;;;15.60;99.90;;;;;;5018494;28;20755;-80
2023/10/23 14:06:17;;;;;;;16.53;10.60;;;15.60;99.90;;;;;;5015697;28;20183;-80
2023/10/23 14:08:43;;;;;;;15.00;10.63;;;15.60;99.90;;;;;;5015161;28;20229;-78
2023/10/23 14:11:09;;;;;;;14.47;10.43;;;15.60;99.90;;;;;;5014852;28;20623;-80
2023/10/23 14:13:35;;;;;;;14.83;10.53;;;15.50;99.90;;;;;;4998952;28;20210;-80
2023/10/23 14:16:01;;;;;;;13.97;10.00;;;15.50;99.90;;;;;;5027792;28;20179;-79